Time;durP1;ratioP1;P1;durP2;ratioP2;P2;SDS_P1;SDS_P2;PMS_P1;PMS_P2;Temp;Humidity;BMP_temperature;BMP_pressure;BME280_temperature;BME280_humidity;BME280_pressure;Samples;Min_cycle;Max_cycle;Signal;HPM_P1;HPM_P2
2023/09/01 00:00:06;;;;;;;7.80;3.87;;;13.80;99.90;;;;;;5043152;28;20931;-62
2023/09/01 00:02:32;;;;;;;8.37;3.63;;;13.80;99.90;;;;;;5043865;28;20253;-62
2023/09/01 00:04:57;;;;;;;9.33;4.33;;;13.80;99.90;;;;;;5040675;28;21429;-61
2023/09/01 00:07:23;;;;;;;6.80;4.13;;;13.80;99.90;;;;;;5040675;28;20191;-63
2023/09/01 00:09:50;;;;;;;6.33;3.60;;;13.80;99.90;;;;;;5046503;28;20214;-62
2023/09/01 00:12:16;;;;;;;6.30;3.80;;;13.90;99.90;;;;;;5040359;28;20701;-62
2023/09/01 00:14:42;;;;;;;10.47;3.40;;;13.80;99.90;;;;;;5045149;28;20434;-62
2023/09/01 00:17:08;;;;;;;5.70;3.13;;;13.90;99.90;;;;;;5036910;28;20461;-62
2023/09/01 00:19:35;;;;;;;5.33;3.83;;;13.90;99.90;;;;;;5037391;28;20199;-62
2023/09/01 00:22:00;;;;;;;5.20;3.80;;;13.90;99.90;;;;;;5044834;28;20468;-62
2023/09/01 00:24:26;;;;;;;4.40;3.67;;;13.90;99.90;;;;;;5040945;28;22583;-62
2023/09/01 00:26:52;;;;;;;4.70;3.70;;;13.90;99.90;;;;;;5047213;28;20652;-61
2023/09/01 00:29:17;;;;;;;6.40;4.00;;;13.90;99.90;;;;;;5046443;28;20254;-61
2023/09/01 00:31:43;;;;;;;4.10;3.70;;;13.90;99.90;;;;;;5043503;28;20262;-61
2023/09/01 00:34:09;;;;;;;5.60;3.53;;;13.90;99.90;;;;;;5038894;28;20210;-63
2023/09/01 00:36:34;;;;;;;6.03;3.90;;;13.90;99.90;;;;;;5041809;28;20239;-61
2023/09/01 00:39:00;;;;;;;5.37;3.50;;;13.90;99.90;;;;;;5035807;28;20184;-61
2023/09/01 00:41:25;;;;;;;5.40;3.40;;;13.90;99.90;;;;;;5038954;28;20605;-61
2023/09/01 00:43:51;;;;;;;4.97;3.67;;;13.90;99.90;;;;;;5045067;28;20206;-62
2023/09/01 00:46:17;;;;;;;8.23;3.93;;;13.90;99.90;;;;;;5043099;28;20225;-61
2023/09/01 00:48:42;;;;;;;5.30;4.03;;;13.80;99.90;;;;;;5037610;28;20183;-61
2023/09/01 00:51:08;;;;;;;7.73;3.50;;;13.80;99.90;;;;;;5039747;28;20186;-60
2023/09/01 00:53:35;;;;;;;4.90;3.80;;;13.80;99.90;;;;;;5043548;28;20691;-60
2023/09/01 00:56:03;;;;;;;6.70;4.47;;;13.80;99.90;;;;;;5043777;28;20183;-60
2023/09/01 00:58:28;;;;;;;5.67;3.80;;;13.80;99.90;;;;;;5040892;28;20435;-60
2023/09/01 01:00:57;;;;;;;5.70;3.10;;;13.80;99.90;;;;;;5042128;28;20452;-62
2023/09/01 01:03:23;;;;;;;5.60;3.57;;;13.80;99.90;;;;;;5041015;28;20211;-60
2023/09/01 01:06:13;;;;;;;4.67;3.27;;;13.80;99.90;;;;;;5040047;28;20528;-61
2023/09/01 01:09:00;;;;;;;7.63;3.70;;;13.80;99.90;;;;;;5042563;28;20171;-61
2023/09/01 01:12:10;;;;;;;12.20;3.80;;;13.70;99.90;;;;;;5039035;28;20441;-60
2023/09/01 01:14:49;;;;;;;4.30;2.87;;;13.70;99.90;;;;;;5045104;28;20433;-60
2023/09/01 01:17:18;;;;;;;5.73;3.23;;;13.80;99.90;;;;;;5040444;28;20433;-61
2023/09/01 01:20:13;;;;;;;5.83;3.70;;;13.80;99.90;;;;;;5041438;28;20965;-60
2023/09/01 01:22:43;;;;;;;3.80;3.10;;;13.80;99.90;;;;;;5035764;28;20473;-61
2023/09/01 01:25:10;;;;;;;8.20;3.27;;;13.80;99.90;;;;;;5043721;28;20481;-60
2023/09/01 01:27:37;;;;;;;7.03;3.30;;;13.80;99.90;;;;;;5041132;28;20959;-61
2023/09/01 01:30:05;;;;;;;4.73;3.53;;;13.80;99.90;;;;;;5042601;28;20520;-60
2023/09/01 01:32:32;;;;;;;6.00;3.00;;;13.90;99.90;;;;;;5040446;28;21544;-61
2023/09/01 01:35:14;;;;;;;6.23;3.20;;;13.90;99.90;;;;;;5037565;28;20452;-62
2023/09/01 01:37:45;;;;;;;5.10;3.30;;;13.90;99.90;;;;;;5037733;28;20568;-62
2023/09/01 01:40:13;;;;;;;4.40;3.33;;;13.90;99.90;;;;;;5039563;28;20439;-61
2023/09/01 01:42:43;;;;;;;4.30;3.00;;;13.90;99.90;;;;;;5040474;28;20470;-60
2023/09/01 01:45:11;;;;;;;3.30;3.00;;;13.90;99.90;;;;;;5036526;28;20465;-60
2023/09/01 01:47:37;;;;;;;6.47;3.17;;;13.90;99.90;;;;;;5040239;28;20438;-60
2023/09/01 01:50:03;;;;;;;5.60;3.00;;;13.90;99.90;;;;;;5034772;28;20436;-61
2023/09/01 01:52:28;;;;;;;9.27;3.90;;;13.90;99.90;;;;;;5039333;28;20848;-60
2023/09/01 01:54:54;;;;;;;6.17;3.43;;;13.90;99.90;;;;;;5043469;28;20187;-61
2023/09/01 01:57:19;;;;;;;8.80;3.07;;;13.80;99.90;;;;;;5042781;28;20179;-60
2023/09/01 01:59:45;;;;;;;4.90;3.20;;;13.80;99.90;;;;;;5039558;28;20214;-60
2023/09/01 02:02:11;;;;;;;5.47;3.70;;;13.90;99.90;;;;;;5042263;28;20215;-60
2023/09/01 02:04:36;;;;;;;3.63;3.00;;;13.80;99.90;;;;;;5041604;28;20175;-60
2023/09/01 02:07:05;;;;;;;12.20;3.30;;;13.90;99.90;;;;;;5041857;28;20651;-61
2023/09/01 02:09:32;;;;;;;6.43;3.63;;;13.80;99.90;;;;;;5045462;28;20163;-62
2023/09/01 02:11:58;;;;;;;5.10;3.63;;;13.80;99.90;;;;;;5043928;28;20421;-60
2023/09/01 02:14:23;;;;;;;7.10;4.20;;;13.80;99.90;;;;;;5044118;28;21015;-60
2023/09/01 02:16:49;;;;;;;6.30;3.40;;;13.80;99.90;;;;;;5052851;28;20179;-61
2023/09/01 02:19:15;;;;;;;5.90;3.80;;;13.80;99.90;;;;;;5043374;28;20171;-61
2023/09/01 02:21:40;;;;;;;9.40;4.07;;;13.80;99.90;;;;;;5045216;28;20277;-62
2023/09/01 02:24:06;;;;;;;4.43;3.20;;;13.80;99.90;;;;;;5045302;28;20194;-60
2023/09/01 02:26:32;;;;;;;7.13;3.40;;;13.70;99.90;;;;;;5047510;28;20220;-61
2023/09/01 02:28:58;;;;;;;6.70;3.17;;;13.70;99.90;;;;;;5045710;28;20171;-61
2023/09/01 02:31:24;;;;;;;10.10;3.40;;;13.70;99.90;;;;;;5044795;28;20167;-60
2023/09/01 02:33:50;;;;;;;4.33;3.23;;;13.70;99.90;;;;;;5044341;28;20210;-60
2023/09/01 02:36:43;;;;;;;5.60;4.00;;;13.70;99.90;;;;;;5046756;28;20438;-61
2023/09/01 02:39:08;;;;;;;6.90;4.17;;;13.70;99.90;;;;;;5043147;28;20177;-61
2023/09/01 02:41:34;;;;;;;4.73;3.23;;;13.60;99.90;;;;;;5042420;28;20502;-60
2023/09/01 02:44:00;;;;;;;8.43;4.20;;;13.60;99.90;;;;;;5046681;28;20191;-62
2023/09/01 02:46:25;;;;;;;4.70;3.47;;;13.60;99.90;;;;;;5044412;28;20172;-60
2023/09/01 02:48:51;;;;;;;7.80;3.57;;;13.60;99.90;;;;;;5046158;28;20433;-61
2023/09/01 02:51:17;;;;;;;4.00;3.60;;;13.60;99.90;;;;;;5046564;28;20179;-61
2023/09/01 02:53:43;;;;;;;5.97;3.80;;;13.60;99.90;;;;;;5038690;28;20317;-61
2023/09/01 02:56:09;;;;;;;6.23;3.70;;;13.60;99.90;;;;;;5043182;28;20451;-61
2023/09/01 02:58:35;;;;;;;4.63;3.80;;;13.60;99.90;;;;;;5043544;28;20174;-61
2023/09/01 03:01:08;;;;;;;12.30;4.10;;;13.60;99.90;;;;;;5045928;28;20195;-61
2023/09/01 03:03:40;;;;;;;6.07;3.90;;;13.50;99.90;;;;;;5042561;28;21083;-61
2023/09/01 03:06:08;;;;;;;9.17;3.60;;;13.50;99.90;;;;;;5039110;28;20475;-62
2023/09/01 03:08:37;;;;;;;4.73;3.63;;;13.50;99.90;;;;;;5043828;28;20418;-60
2023/09/01 03:11:04;;;;;;;5.87;3.80;;;13.50;99.90;;;;;;5044503;28;20421;-62
2023/09/01 03:13:30;;;;;;;6.30;3.90;;;13.50;99.90;;;;;;5045186;28;20445;-60
2023/09/01 03:15:56;;;;;;;3.13;2.90;;;13.50;99.90;;;;;;5046748;28;20437;-60
2023/09/01 03:18:23;;;;;;;3.83;3.43;;;13.50;99.90;;;;;;5041385;28;20437;-61
2023/09/01 03:20:50;;;;;;;6.77;3.63;;;13.50;99.90;;;;;;5042495;28;20433;-61
2023/09/01 03:23:16;;;;;;;4.30;3.60;;;13.50;99.90;;;;;;5041073;28;20946;-60
2023/09/01 03:25:41;;;;;;;7.50;4.10;;;13.50;99.90;;;;;;5044186;28;20521;-61
2023/09/01 03:28:07;;;;;;;6.07;3.70;;;13.50;99.90;;;;;;5044134;28;20179;-61
2023/09/01 03:30:32;;;;;;;5.37;3.70;;;13.50;99.90;;;;;;5037476;28;20175;-62
2023/09/01 03:32:58;;;;;;;5.40;3.97;;;13.50;99.90;;;;;;5043361;28;20199;-62
2023/09/01 03:35:24;;;;;;;6.13;3.50;;;13.50;99.90;;;;;;5048316;28;20188;-61
2023/09/01 03:37:49;;;;;;;7.20;3.30;;;13.60;99.90;;;;;;5047569;28;20187;-60
2023/09/01 03:40:16;;;;;;;5.00;3.87;;;13.60;99.90;;;;;;5042173;28;20179;-61
2023/09/01 03:42:41;;;;;;;5.03;3.63;;;13.50;99.90;;;;;;5041016;28;20198;-62
2023/09/01 03:45:07;;;;;;;4.53;3.67;;;13.50;99.90;;;;;;5047297;28;20574;-60
2023/09/01 03:47:33;;;;;;;11.77;5.40;;;13.50;99.90;;;;;;5041931;28;20175;-62
2023/09/01 03:49:58;;;;;;;5.50;4.37;;;13.40;99.90;;;;;;5040980;28;20444;-62
2023/09/01 03:52:24;;;;;;;10.47;5.60;;;13.40;99.90;;;;;;5039072;28;20664;-61
2023/09/01 03:54:50;;;;;;;5.87;4.67;;;13.40;99.90;;;;;;5039961;28;20184;-61
2023/09/01 03:57:16;;;;;;;8.80;4.23;;;13.40;99.90;;;;;;5034152;28;20175;-60
2023/09/01 03:59:42;;;;;;;9.60;4.30;;;13.40;99.90;;;;;;5044673;28;20185;-61
2023/09/01 04:02:08;;;;;;;10.70;4.57;;;13.40;99.90;;;;;;5041011;28;20570;-61
2023/09/01 04:04:34;;;;;;;4.80;3.60;;;13.30;99.90;;;;;;5040593;28;20430;-60
2023/09/01 04:06:59;;;;;;;4.80;3.30;;;13.30;99.90;;;;;;5043301;28;20188;-61
2023/09/01 04:09:25;;;;;;;9.10;3.50;;;13.30;99.90;;;;;;5044220;28;20187;-61
2023/09/01 04:11:50;;;;;;;4.80;3.73;;;13.30;99.90;;;;;;5044226;28;20194;-60
2023/09/01 04:14:16;;;;;;;7.80;4.20;;;13.30;99.90;;;;;;5044954;28;20205;-60
2023/09/01 04:16:42;;;;;;;8.20;3.17;;;13.30;99.90;;;;;;5038893;28;21478;-61
2023/09/01 04:19:07;;;;;;;7.00;4.20;;;13.30;99.90;;;;;;5043076;28;20176;-60
2023/09/01 04:21:33;;;;;;;7.97;4.20;;;13.30;99.90;;;;;;5039212;28;20184;-61
2023/09/01 04:23:58;;;;;;;5.30;3.77;;;13.30;99.90;;;;;;5042779;28;20210;-61
2023/09/01 04:26:25;;;;;;;10.67;4.13;;;13.40;99.90;;;;;;5046927;28;20187;-60
2023/09/01 04:28:51;;;;;;;5.93;3.87;;;13.40;99.90;;;;;;5041448;28;20202;-61
2023/09/01 04:31:21;;;;;;;11.20;5.13;;;13.40;99.90;;;;;;5042534;28;20472;-61
2023/09/01 04:33:47;;;;;;;9.80;4.83;;;13.40;99.90;;;;;;5045346;28;20207;-61
2023/09/01 04:36:12;;;;;;;7.80;4.70;;;13.40;99.90;;;;;;5043261;28;20482;-61
2023/09/01 04:38:38;;;;;;;6.97;4.67;;;13.50;99.90;;;;;;5038156;28;21913;-60
2023/09/01 04:41:04;;;;;;;6.70;4.70;;;13.40;99.90;;;;;;5041761;28;20885;-60
2023/09/01 04:43:29;;;;;;;6.37;4.53;;;13.40;99.90;;;;;;5041857;28;20208;-60
2023/09/01 04:45:57;;;;;;;5.17;4.30;;;13.40;99.90;;;;;;5042403;28;20174;-61
2023/09/01 04:48:24;;;;;;;7.73;5.00;;;13.40;99.90;;;;;;5048551;28;20175;-60
2023/09/01 04:50:49;;;;;;;5.13;4.47;;;13.40;99.90;;;;;;5044052;28;20524;-60
2023/09/01 04:53:16;;;;;;;9.10;4.80;;;13.40;99.90;;;;;;5043746;28;20524;-60
2023/09/01 04:55:44;;;;;;;6.27;5.07;;;13.50;99.90;;;;;;5046767;28;20180;-61
2023/09/01 04:58:10;;;;;;;11.93;4.00;;;13.50;99.90;;;;;;5042681;28;20430;-60
2023/09/01 05:00:37;;;;;;;8.37;5.23;;;13.50;99.90;;;;;;5044837;28;20441;-60
2023/09/01 05:03:02;;;;;;;5.07;3.57;;;13.50;99.90;;;;;;5044858;28;20221;-60
2023/09/01 05:05:28;;;;;;;5.97;3.97;;;13.50;99.90;;;;;;5040810;28;20429;-60
2023/09/01 05:07:54;;;;;;;5.80;3.00;;;13.50;99.90;;;;;;5042404;28;20207;-60
2023/09/01 05:10:19;;;;;;;7.50;3.50;;;13.50;99.90;;;;;;5041281;28;20601;-60
2023/09/01 05:12:45;;;;;;;5.03;2.93;;;13.50;99.90;;;;;;5042285;28;20203;-60
2023/09/01 05:15:12;;;;;;;3.60;2.77;;;13.50;99.90;;;;;;5038899;28;20214;-62
2023/09/01 05:17:38;;;;;;;3.93;2.63;;;13.50;99.90;;;;;;5042580;28;20203;-61
2023/09/01 05:20:07;;;;;;;3.80;2.63;;;13.50;99.90;;;;;;5043186;28;20853;-60
2023/09/01 05:22:36;;;;;;;2.87;2.33;;;13.50;99.90;;;;;;5043696;28;20207;-60
2023/09/01 05:25:02;;;;;;;5.80;3.03;;;13.50;99.90;;;;;;5043294;28;20931;-60
2023/09/01 05:27:28;;;;;;;4.27;2.97;;;13.60;99.90;;;;;;5044038;28;21240;-62
2023/09/01 05:29:54;;;;;;;3.73;3.30;;;13.60;99.90;;;;;;5044428;28;20437;-60
2023/09/01 05:32:21;;;;;;;5.20;3.30;;;13.60;99.90;;;;;;5047714;28;20623;-60
2023/09/01 05:34:47;;;;;;;11.53;3.27;;;13.60;99.90;;;;;;5040971;28;20279;-61
2023/09/01 05:37:13;;;;;;;6.50;3.40;;;13.60;99.90;;;;;;5042989;28;20520;-61
2023/09/01 05:39:42;;;;;;;7.03;4.30;;;13.70;99.90;;;;;;5045619;28;20183;-60
2023/09/01 05:42:08;;;;;;;8.87;3.30;;;13.70;99.90;;;;;;5043265;28;20207;-60
2023/09/01 05:44:35;;;;;;;6.93;3.90;;;13.70;99.90;;;;;;5041486;28;20439;-61
2023/09/01 05:47:03;;;;;;;8.57;3.77;;;13.60;99.90;;;;;;5042629;28;20422;-60
2023/09/01 05:49:31;;;;;;;4.10;3.17;;;13.60;99.90;;;;;;5039641;28;20452;-60
2023/09/01 05:51:57;;;;;;;4.30;3.57;;;13.70;99.90;;;;;;5045229;28;20429;-60
2023/09/01 05:54:22;;;;;;;7.87;4.23;;;13.70;99.90;;;;;;5040973;28;20429;-61
2023/09/01 05:56:48;;;;;;;5.67;4.37;;;13.70;99.90;;;;;;5047432;28;20259;-61
2023/09/01 05:59:14;;;;;;;5.97;4.17;;;13.70;99.90;;;;;;5047849;28;20171;-61
2023/09/01 06:01:40;;;;;;;9.70;5.00;;;13.70;99.90;;;;;;5045214;28;20532;-60
2023/09/01 06:04:06;;;;;;;5.33;4.20;;;13.70;99.90;;;;;;5041412;28;20194;-61
2023/09/01 06:06:35;;;;;;;6.67;4.60;;;13.80;99.90;;;;;;5044613;28;20437;-62
2023/09/01 06:09:04;;;;;;;10.23;4.13;;;13.80;99.90;;;;;;5044723;28;20752;-61
2023/09/01 06:11:30;;;;;;;6.00;4.30;;;13.80;99.90;;;;;;5042094;28;20567;-61
2023/09/01 06:13:56;;;;;;;11.90;4.47;;;13.80;99.90;;;;;;5043218;28;20449;-61
2023/09/01 06:16:22;;;;;;;6.47;3.90;;;13.90;99.90;;;;;;5045137;28;20775;-61
2023/09/01 06:18:47;;;;;;;10.43;3.60;;;13.90;99.90;;;;;;5045003;28;20508;-60
2023/09/01 06:21:16;;;;;;;7.93;3.80;;;14.00;99.90;;;;;;5040087;28;20774;-61
2023/09/01 06:23:44;;;;;;;8.73;5.00;;;14.00;99.90;;;;;;5042234;28;20194;-61
2023/09/01 06:26:17;;;;;;;8.10;4.60;;;14.10;99.90;;;;;;5046957;28;20456;-61
2023/09/01 06:28:44;;;;;;;13.33;5.20;;;14.10;99.90;;;;;;5035140;28;20421;-60
2023/09/01 06:31:10;;;;;;;8.23;5.50;;;14.20;99.90;;;;;;5039943;28;20501;-60
2023/09/01 06:33:37;;;;;;;5.50;4.20;;;14.20;99.90;;;;;;5035125;28;20477;-60
2023/09/01 06:36:04;;;;;;;4.93;4.13;;;14.30;99.90;;;;;;5042684;28;20428;-60
2023/09/01 06:38:30;;;;;;;8.50;4.50;;;14.30;99.90;;;;;;5034627;28;20434;-59
2023/09/01 06:40:55;;;;;;;10.70;4.50;;;14.30;99.90;;;;;;5034608;28;20479;-60
2023/09/01 06:43:21;;;;;;;4.93;4.20;;;14.40;99.90;;;;;;5030097;28;20505;-61
2023/09/01 06:45:47;;;;;;;10.93;4.40;;;14.40;99.90;;;;;;5037459;28;20180;-61
2023/09/01 06:48:12;;;;;;;7.87;5.03;;;14.50;99.90;;;;;;5027197;28;20750;-60
2023/09/01 06:50:38;;;;;;;7.47;4.37;;;14.60;99.90;;;;;;5039343;28;20180;-60
2023/09/01 06:53:05;;;;;;;8.13;5.00;;;14.60;99.90;;;;;;5032297;28;20206;-60
2023/09/01 06:55:31;;;;;;;5.50;4.67;;;14.70;99.90;;;;;;5037721;28;20685;-59
2023/09/01 06:57:56;;;;;;;7.67;4.80;;;14.80;99.90;;;;;;5033634;28;20444;-59
2023/09/01 07:00:22;;;;;;;8.67;5.00;;;14.90;99.90;;;;;;5035638;28;20186;-60
2023/09/01 07:02:48;;;;;;;6.07;4.40;;;14.90;99.90;;;;;;5040332;28;21898;-62
2023/09/01 07:05:16;;;;;;;7.37;4.40;;;15.00;99.90;;;;;;5041130;28;20177;-63
2023/09/01 07:07:41;;;;;;;5.33;4.30;;;15.10;99.90;;;;;;5036796;28;20815;-60
2023/09/01 07:10:07;;;;;;;15.87;4.17;;;15.20;99.90;;;;;;5039821;28;20502;-60
2023/09/01 07:12:33;;;;;;;10.70;5.43;;;15.30;99.90;;;;;;5034148;28;20299;-62
2023/09/01 07:14:58;;;;;;;11.53;6.67;;;15.30;99.90;;;;;;5040322;28;20616;-61
2023/09/01 07:17:24;;;;;;;10.47;5.93;;;15.40;99.90;;;;;;5033536;28;20233;-60
2023/09/01 07:19:50;;;;;;;11.83;5.37;;;15.40;99.90;;;;;;5036181;28;20261;-62
2023/09/01 07:22:15;;;;;;;6.83;4.03;;;15.50;99.90;;;;;;5040589;28;20326;-60
2023/09/01 07:24:41;;;;;;;6.93;3.90;;;15.50;99.90;;;;;;5042335;28;20261;-60
2023/09/01 07:27:07;;;;;;;8.60;3.97;;;15.60;99.90;;;;;;5040243;28;20183;-60
2023/09/01 07:29:33;;;;;;;6.53;4.00;;;15.70;99.90;;;;;;5038457;28;20167;-60
2023/09/01 07:31:59;;;;;;;12.70;5.00;;;15.80;99.90;;;;;;5042131;28;20221;-60
2023/09/01 07:34:25;;;;;;;5.97;4.00;;;15.90;99.90;;;;;;5043186;28;20866;-55
2023/09/01 07:36:51;;;;;;;5.97;3.70;;;15.90;99.90;;;;;;5042034;28;20437;-57
2023/09/01 07:39:17;;;;;;;5.50;4.10;;;16.00;99.90;;;;;;5043957;28;20505;-57
2023/09/01 07:41:42;;;;;;;7.93;4.07;;;16.10;99.90;;;;;;5047663;28;20176;-57
2023/09/01 07:44:08;;;;;;;4.90;3.80;;;16.10;99.90;;;;;;5049863;28;20206;-56
2023/09/01 07:46:34;;;;;;;5.50;4.00;;;16.20;99.90;;;;;;5044977;28;20258;-56
2023/09/01 07:49:00;;;;;;;9.30;3.60;;;16.20;99.90;;;;;;5045025;28;20179;-55
2023/09/01 07:51:26;;;;;;;4.63;3.30;;;16.30;99.90;;;;;;5041229;28;20260;-57
2023/09/01 07:53:54;;;;;;;5.00;3.60;;;16.30;99.90;;;;;;5039451;28;20632;-57
2023/09/01 07:56:20;;;;;;;4.30;3.03;;;16.40;99.90;;;;;;5038672;28;20214;-57
2023/09/01 07:58:46;;;;;;;8.33;2.27;;;16.40;99.90;;;;;;5043020;28;20480;-57
2023/09/01 08:01:11;;;;;;;4.60;2.90;;;16.50;99.90;;;;;;5039448;28;20469;-56
2023/09/01 08:03:37;;;;;;;6.00;2.63;;;16.50;99.90;;;;;;5045348;28;20703;-57
2023/09/01 08:06:04;;;;;;;4.00;2.40;;;16.60;99.90;;;;;;5046113;28;20179;-60
2023/09/01 08:08:30;;;;;;;3.83;2.00;;;16.60;99.90;;;;;;5043509;28;20207;-59
2023/09/01 08:10:55;;;;;;;3.40;2.80;;;16.60;99.90;;;;;;5039821;28;20477;-60
2023/09/01 08:13:22;;;;;;;6.47;2.27;;;16.60;99.90;;;;;;5042502;28;20202;-63
2023/09/01 08:15:48;;;;;;;2.70;2.10;;;16.70;99.90;;;;;;5045866;28;20186;-62
2023/09/01 08:18:13;;;;;;;2.80;2.10;;;16.80;99.90;;;;;;5043283;28;20418;-61
2023/09/01 08:20:40;;;;;;;4.00;2.20;;;16.80;99.90;;;;;;5045031;28;20679;-62
2023/09/01 08:23:05;;;;;;;7.00;2.07;;;16.80;99.90;;;;;;5040375;28;20286;-62
2023/09/01 08:25:32;;;;;;;4.73;2.30;;;16.90;99.90;;;;;;5049778;28;20529;-60
2023/09/01 08:27:58;;;;;;;8.67;2.73;;;17.00;99.90;;;;;;5040119;28;20182;-60
2023/09/01 08:30:24;;;;;;;5.23;2.07;;;17.10;99.90;;;;;;5042587;28;20421;-59
2023/09/01 08:32:50;;;;;;;4.93;2.60;;;17.20;99.90;;;;;;5044454;28;20237;-61
2023/09/01 08:35:15;;;;;;;3.83;2.30;;;17.30;99.90;;;;;;5037247;28;20175;-60
2023/09/01 08:37:41;;;;;;;10.30;2.50;;;17.40;99.90;;;;;;5032653;28;20191;-59
2023/09/01 08:40:11;;;;;;;3.50;2.00;;;17.50;99.90;;;;;;5038031;28;20175;-59
2023/09/01 08:42:46;;;;;;;5.33;1.90;;;17.50;99.90;;;;;;5034561;28;20470;-58
2023/09/01 08:45:16;;;;;;;2.70;2.20;;;17.50;99.90;;;;;;5044492;28;20428;-60
2023/09/01 08:47:47;;;;;;;6.00;2.77;;;17.60;99.90;;;;;;5041436;28;20989;-63
2023/09/01 08:50:14;;;;;;;3.60;2.50;;;17.60;99.90;;;;;;5038962;28;20453;-65
2023/09/01 08:52:44;;;;;;;3.67;2.47;;;17.70;99.90;;;;;;5032894;28;20538;-64
2023/09/01 08:55:16;;;;;;;3.33;2.13;;;17.80;99.90;;;;;;5033812;28;20430;-65
2023/09/01 08:57:42;;;;;;;2.27;1.77;;;18.00;99.90;;;;;;5043701;28;20476;-61
2023/09/01 09:00:09;;;;;;;5.30;2.00;;;18.20;99.90;;;;;;5036300;28;20965;-59
2023/09/01 09:02:44;;;;;;;3.90;2.57;;;18.40;99.90;;;;;;5040245;28;20473;-60
2023/09/01 09:05:13;;;;;;;2.80;1.87;;;18.50;99.90;;;;;;5032406;28;20966;-60
2023/09/01 09:07:39;;;;;;;4.13;2.43;;;18.50;99.90;;;;;;5030544;28;20430;-60
2023/09/01 09:10:06;;;;;;;2.30;2.10;;;18.60;99.90;;;;;;5042132;28;20436;-61
2023/09/01 09:12:41;;;;;;;3.00;1.90;;;18.60;99.90;;;;;;5036574;28;20199;-60
2023/09/01 09:15:08;;;;;;;4.27;2.37;;;18.60;99.90;;;;;;5040198;28;20429;-60
2023/09/01 09:17:43;;;;;;;2.70;1.87;;;18.50;99.90;;;;;;5036857;28;20437;-60
2023/09/01 09:20:09;;;;;;;3.20;1.80;;;18.40;99.90;;;;;;5041286;28;20432;-59
2023/09/01 09:22:53;;;;;;;1.70;1.60;;;18.30;99.90;;;;;;5037818;28;20469;-60
2023/09/01 09:25:37;;;;;;;3.63;1.67;;;18.30;99.90;;;;;;5050910;28;20404;-60
2023/09/01 09:28:13;;;;;;;3.67;1.80;;;18.20;99.90;;;;;;5042590;28;20499;-59
2023/09/01 09:30:52;;;;;;;5.93;2.23;;;18.10;99.90;;;;;;5038383;28;20421;-59
2023/09/01 09:33:29;;;;;;;2.40;1.90;;;18.10;99.90;;;;;;5041730;28;20449;-60
2023/09/01 09:35:54;;;;;;;2.20;1.90;;;18.20;99.90;;;;;;5036391;28;20425;-60
2023/09/01 09:38:21;;;;;;;2.40;1.60;;;18.20;99.90;;;;;;5042511;28;20505;-59
2023/09/01 09:41:13;;;;;;;3.80;1.63;;;18.40;99.90;;;;;;5036076;28;20202;-60
2023/09/01 09:43:46;;;;;;;5.37;1.63;;;18.60;99.90;;;;;;5044370;28;20469;-60
2023/09/01 09:46:13;;;;;;;3.50;2.00;;;18.80;99.90;;;;;;5047007;28;20481;-60
2023/09/01 09:48:40;;;;;;;2.57;2.00;;;19.00;99.90;;;;;;5041616;28;20801;-60
2023/09/01 09:51:07;;;;;;;3.50;1.87;;;19.10;99.90;;;;;;5038933;28;20436;-60
2023/09/01 09:53:36;;;;;;;2.30;1.77;;;19.30;99.90;;;;;;5037093;28;20457;-59
2023/09/01 09:56:17;;;;;;;1.80;1.70;;;19.40;99.90;;;;;;5038268;28;20516;-59
2023/09/01 09:58:46;;;;;;;3.37;1.70;;;19.40;99.90;;;;;;5039603;28;20521;-60
2023/09/01 10:01:19;;;;;;;3.50;1.63;;;19.40;99.90;;;;;;5036771;28;20442;-60
2023/09/01 10:03:47;;;;;;;3.23;1.60;;;19.30;99.90;;;;;;5038467;28;20844;-60
2023/09/01 10:06:15;;;;;;;2.40;1.70;;;19.30;99.90;;;;;;5038636;28;20564;-63
2023/09/01 10:08:42;;;;;;;2.50;1.80;;;19.50;99.90;;;;;;5039851;28;20955;-59
2023/09/01 10:11:09;;;;;;;3.73;1.63;;;19.50;99.90;;;;;;5045634;28;20514;-59
2023/09/01 10:13:36;;;;;;;3.93;1.53;;;19.50;99.90;;;;;;5036641;28;20460;-61
2023/09/01 10:16:03;;;;;;;4.67;1.80;;;19.50;99.90;;;;;;5041309;28;20518;-61
2023/09/01 10:18:29;;;;;;;2.93;1.70;;;19.40;99.90;;;;;;5041848;28;21138;-59
2023/09/01 10:20:55;;;;;;;3.93;1.77;;;19.40;99.90;;;;;;5039179;28;20436;-59
2023/09/01 10:23:21;;;;;;;2.40;1.67;;;19.40;99.90;;;;;;5039033;28;20457;-59
2023/09/01 10:26:24;;;;;;;2.80;1.80;;;19.30;99.90;;;;;;5039241;28;20679;-59
2023/09/01 10:28:54;;;;;;;2.17;1.73;;;19.30;99.90;;;;;;5025608;28;20198;-59
2023/09/01 10:31:20;;;;;;;2.50;1.63;;;19.30;99.90;;;;;;5039482;28;20508;-59
2023/09/01 10:33:46;;;;;;;4.80;2.50;;;19.30;99.90;;;;;;5045317;28;20552;-60
2023/09/01 10:36:14;;;;;;;5.53;2.20;;;19.30;99.90;;;;;;5044160;28;20180;-57
2023/09/01 10:38:40;;;;;;;4.43;1.70;;;19.30;99.90;;;;;;5039061;28;20183;-58
2023/09/01 10:41:06;;;;;;;2.00;1.60;;;19.40;99.90;;;;;;5041308;28;20430;-57
2023/09/01 10:43:38;;;;;;;2.20;1.60;;;19.40;99.90;;;;;;5041183;28;21132;-57
2023/09/01 10:46:24;;;;;;;2.20;1.90;;;19.40;99.90;;;;;;5040368;28;20174;-57
2023/09/01 10:49:00;;;;;;;1.73;1.53;;;19.40;99.90;;;;;;5042612;28;20907;-61
2023/09/01 10:51:30;;;;;;;2.23;2.03;;;19.50;99.90;;;;;;5040030;28;20449;-60
2023/09/01 10:54:00;;;;;;;9.63;1.90;;;19.60;99.90;;;;;;5043339;28;20476;-59
2023/09/01 10:56:32;;;;;;;3.17;1.80;;;19.60;99.90;;;;;;5039992;28;20505;-60
2023/09/01 10:58:58;;;;;;;8.37;2.37;;;19.80;99.90;;;;;;5034180;28;20437;-60
2023/09/01 11:01:33;;;;;;;4.13;2.20;;;20.00;99.90;;;;;;5031423;28;20454;-55
2023/09/01 11:04:16;;;;;;;8.57;2.87;;;20.10;99.90;;;;;;5033898;28;20491;-59
2023/09/01 11:07:00;;;;;;;5.83;2.37;;;20.20;99.90;;;;;;5032533;28;20480;-60
2023/09/01 11:09:47;;;;;;;3.83;2.10;;;20.30;99.90;;;;;;5022168;28;20454;-60
2023/09/01 11:12:13;;;;;;;7.30;1.73;;;20.30;99.90;;;;;;5026014;28;20552;-58
2023/09/01 11:14:54;;;;;;;3.00;2.00;;;20.30;99.90;;;;;;5029988;28;20430;-58
2023/09/01 11:17:40;;;;;;;3.80;2.13;;;20.30;99.90;;;;;;5031623;28;20479;-59
2023/09/01 11:20:09;;;;;;;4.73;2.10;;;20.20;99.90;;;;;;5034887;28;20518;-59
2023/09/01 11:22:37;;;;;;;3.20;2.07;;;20.20;99.90;;;;;;5039618;28;20587;-59
2023/09/01 11:25:03;;;;;;;2.73;1.90;;;20.20;99.90;;;;;;5037039;28;21057;-59
2023/09/01 11:27:29;;;;;;;4.40;2.10;;;20.30;99.90;;;;;;5038108;28;20433;-61
2023/09/01 11:29:54;;;;;;;3.20;1.60;;;20.30;99.90;;;;;;5037619;28;20274;-60
2023/09/01 11:32:27;;;;;;;3.43;1.73;;;20.30;99.90;;;;;;5042520;28;20487;-59
2023/09/01 11:34:53;;;;;;;2.67;1.90;;;20.40;99.90;;;;;;5043948;28;20233;-59
2023/09/01 11:37:33;;;;;;;2.70;2.13;;;20.40;99.90;;;;;;5034583;28;20930;-59
2023/09/01 11:40:00;;;;;;;5.67;2.10;;;20.40;99.90;;;;;;5041752;28;20257;-58
2023/09/01 11:42:25;;;;;;;3.93;2.10;;;20.50;99.90;;;;;;5037571;28;20842;-59
2023/09/01 11:44:51;;;;;;;5.00;2.00;;;20.70;99.90;;;;;;5032316;28;20520;-60
2023/09/01 11:47:17;;;;;;;4.57;1.90;;;20.80;99.40;;;;;;5038935;28;21108;-59
2023/09/01 11:49:43;;;;;;;3.10;1.70;;;20.80;94.80;;;;;;5038514;28;21990;-57
2023/09/01 11:52:08;;;;;;;2.63;1.80;;;20.70;93.80;;;;;;5036816;28;20183;-59
2023/09/01 11:54:41;;;;;;;3.13;1.97;;;20.70;96.50;;;;;;5042585;28;20583;-59
2023/09/01 11:57:13;;;;;;;2.20;1.93;;;20.60;97.10;;;;;;5037998;28;20184;-59
2023/09/01 11:59:48;;;;;;;2.50;1.90;;;20.60;97.20;;;;;;5041090;28;20425;-60
2023/09/01 12:02:18;;;;;;;7.60;2.10;;;20.60;98.40;;;;;;5040805;28;20481;-60
2023/09/01 12:04:53;;;;;;;1.63;1.43;;;20.60;96.40;;;;;;5032617;28;20508;-60
2023/09/01 12:07:23;;;;;;;3.00;1.93;;;20.70;97.30;;;;;;5037344;28;20425;-60
2023/09/01 12:09:48;;;;;;;3.47;2.07;;;20.70;96.20;;;;;;5030033;28;20434;-59
2023/09/01 12:12:14;;;;;;;3.33;2.23;;;20.70;96.10;;;;;;5035700;28;20460;-58
2023/09/01 12:14:39;;;;;;;5.13;1.87;;;20.80;96.10;;;;;;5040487;28;20265;-59
2023/09/01 12:17:16;;;;;;;2.10;1.70;;;20.80;94.00;;;;;;5039433;28;20176;-60
2023/09/01 12:19:51;;;;;;;4.47;1.50;;;20.90;91.90;;;;;;5038353;28;20886;-57
2023/09/01 12:22:18;;;;;;;3.63;2.10;;;21.20;87.20;;;;;;5040970;28;20460;-59
2023/09/01 12:24:50;;;;;;;2.23;1.90;;;21.40;82.50;;;;;;5043201;28;20459;-59
2023/09/01 12:27:15;;;;;;;2.30;1.70;;;21.80;85.60;;;;;;5038801;28;20514;-59
2023/09/01 12:29:41;;;;;;;2.30;1.57;;;22.10;80.20;;;;;;5039786;28;20425;-58
2023/09/01 12:32:07;;;;;;;2.93;1.70;;;22.30;78.70;;;;;;5034298;28;20271;-58
2023/09/01 12:34:32;;;;;;;1.77;1.40;;;22.60;70.00;;;;;;5037038;28;20541;-60
2023/09/01 12:36:58;;;;;;;1.53;1.27;;;22.90;64.70;;;;;;5032075;28;20185;-58
2023/09/01 12:39:23;;;;;;;2.97;1.50;;;23.30;61.00;;;;;;5038548;28;20677;-61
2023/09/01 12:41:49;;;;;;;2.20;1.70;;;23.60;61.00;;;;;;5038630;28;20270;-59
2023/09/01 12:44:14;;;;;;;1.93;1.40;;;24.00;61.30;;;;;;5039193;28;20708;-58
2023/09/01 12:46:40;;;;;;;2.37;1.20;;;24.30;57.90;;;;;;5041885;28;20298;-58
2023/09/01 12:49:06;;;;;;;2.20;1.30;;;24.20;57.00;;;;;;5034491;28;20171;-60